createdAt,value
2019-04-10T00:00:35.247Z,1.20
2019-04-10T00:03:06.059Z,1.10
2019-04-10T00:05:36.201Z,1.10
2019-04-10T00:08:06.172Z,1.10
2019-04-10T00:10:36.479Z,1.20
2019-04-10T00:13:06.677Z,1.20
2019-04-10T00:15:35.913Z,1.20
2019-04-10T00:18:05.345Z,1.20
2019-04-10T00:20:36.546Z,1.20
2019-04-10T00:23:06.552Z,1.20
2019-04-10T00:25:37.103Z,1.30
2019-04-10T00:28:12.754Z,1.30
2019-04-10T00:30:43.105Z,1.30
2019-04-10T00:33:12.427Z,1.30
2019-04-10T00:35:41.869Z,1.20
2019-04-10T00:38:12.059Z,1.20
2019-04-10T00:40:42.459Z,1.20
2019-04-10T00:43:12.756Z,1.20
2019-04-10T00:45:41.967Z,1.20
2019-04-10T00:48:15.483Z,1.30
2019-04-10T00:50:44.756Z,1.20
2019-04-10T00:53:14.111Z,1.20
2019-04-10T00:55:44.060Z,1.20
2019-04-10T00:58:14.103Z,1.20
2019-04-10T01:00:43.477Z,1.20
2019-04-10T01:03:15.670Z,1.20
2019-04-10T01:05:44.922Z,1.20
2019-04-10T01:08:16.114Z,1.20
2019-04-10T01:10:46.289Z,1.20
2019-04-10T01:13:18.773Z,1.20
2019-04-10T01:15:51.004Z,1.10
2019-04-10T01:18:23.393Z,1.10
2019-04-10T01:20:53.583Z,1.10
2019-04-10T01:23:22.895Z,1.00
2019-04-10T01:25:52.251Z,1.00
2019-04-10T01:28:22.721Z,1.00
2019-04-10T01:30:52.763Z,0.90
2019-04-10T01:33:22.781Z,0.90
2019-04-10T01:35:52.355Z,0.90
2019-04-10T01:38:21.859Z,0.80
2019-04-10T01:40:51.183Z,0.90
2019-04-10T01:43:22.499Z,0.90
2019-04-10T01:45:51.779Z,0.90
2019-04-10T01:48:21.142Z,0.80
2019-04-10T01:50:50.785Z,0.70
2019-04-10T01:53:21.844Z,0.70
2019-04-10T01:55:53.531Z,0.60
2019-04-10T01:58:23.895Z,0.60
2019-04-10T02:01:01.771Z,0.50
2019-04-10T02:03:31.148Z,0.50
2019-04-10T02:06:00.994Z,0.50
2019-04-10T02:08:30.600Z,0.50
2019-04-10T02:11:00.669Z,0.40
2019-04-10T02:13:30.115Z,0.30
2019-04-10T02:16:00.487Z,0.30
2019-04-10T02:18:31.015Z,0.30
2019-04-10T02:21:01.174Z,0.20
2019-04-10T02:23:33.074Z,0.20
2019-04-10T02:26:03.254Z,0.20
2019-04-10T02:28:33.357Z,0.10
2019-04-10T02:31:02.998Z,0.10
2019-04-10T02:33:33.606Z,0.00
2019-04-10T02:36:03.778Z,0.00
2019-04-10T02:38:48.953Z,-0.10
2019-04-10T02:41:05.895Z,-0.10
2019-04-10T02:43:36.081Z,-0.20
2019-04-10T02:46:06.864Z,-0.20
2019-04-10T02:48:37.262Z,-0.20
2019-04-10T02:51:07.660Z,-0.20
2019-04-10T02:53:38.922Z,-0.20
2019-04-10T02:56:09.088Z,-0.30
2019-04-10T02:58:38.667Z,-0.30
2019-04-10T03:01:09.233Z,-0.30
2019-04-10T03:03:40.211Z,-0.30
2019-04-10T03:06:11.372Z,-0.30
2019-04-10T03:08:59.252Z,-0.30
2019-04-10T03:11:12.600Z,-0.30
2019-04-10T03:13:47.164Z,-0.30
2019-04-10T03:16:19.369Z,-0.30
2019-04-10T03:18:49.669Z,-0.30
2019-04-10T03:21:20.718Z,-0.30
2019-04-10T03:23:50.395Z,-0.30
2019-04-10T03:26:19.906Z,-0.30
2019-04-10T03:28:49.436Z,-0.30
2019-04-10T03:31:20.100Z,-0.40
2019-04-10T03:34:13.780Z,-0.40
2019-04-10T03:36:43.589Z,-0.40
2019-04-10T03:39:13.229Z,-0.40
2019-04-10T03:41:42.854Z,-0.50
2019-04-10T03:44:12.468Z,-0.50
2019-04-10T03:46:42.703Z,-0.50
2019-04-10T03:49:12.297Z,-0.40
2019-04-10T03:51:42.903Z,-0.40
2019-04-10T03:54:13.143Z,-0.50
2019-04-10T03:56:42.895Z,-0.40
2019-04-10T03:59:13.762Z,-0.40
2019-04-10T04:01:43.455Z,-0.30
2019-04-10T04:04:13.349Z,-0.30
2019-04-10T04:06:42.752Z,-0.30
2019-04-10T04:09:13.538Z,-0.30
2019-04-10T04:11:44.038Z,-0.30
2019-04-10T04:14:14.439Z,-0.40
2019-04-10T04:16:47.051Z,-0.40
2019-04-10T04:19:17.702Z,-0.40
2019-04-10T04:21:48.151Z,-0.40
2019-04-10T04:24:17.933Z,-0.40
2019-04-10T04:26:48.723Z,-0.40
2019-04-10T04:29:18.500Z,-0.30
2019-04-10T04:31:48.446Z,-0.20
2019-04-10T04:34:18.668Z,-0.10
2019-04-10T04:36:49.129Z,0.00
2019-04-10T04:39:24.942Z,0.10
2019-04-10T04:41:52.121Z,0.10
2019-04-10T04:44:22.191Z,0.20
2019-04-10T04:46:52.623Z,0.20
2019-04-10T04:49:31.296Z,0.20
2019-04-10T04:52:00.655Z,0.30
2019-04-10T04:54:30.951Z,0.30
2019-04-10T04:57:02.682Z,0.40
2019-04-10T04:59:36.309Z,0.50
2019-04-10T05:02:05.938Z,0.60
2019-04-10T05:04:37.862Z,0.60
2019-04-10T05:07:08.358Z,0.60
2019-04-10T05:09:40.579Z,0.60
2019-04-10T05:12:10.034Z,0.70
2019-04-10T05:14:39.871Z,0.80
2019-04-10T05:17:10.922Z,0.80
2019-04-10T05:19:40.572Z,0.90
2019-04-10T05:22:10.219Z,0.90
2019-04-10T05:24:40.431Z,0.90
2019-04-10T05:27:09.884Z,0.90
2019-04-10T05:29:39.001Z,0.80
2019-04-10T05:32:09.282Z,0.90
2019-04-10T05:34:38.646Z,0.80
2019-04-10T05:37:07.962Z,0.90
2019-04-10T05:39:43.396Z,0.90
2019-04-10T05:42:08.483Z,1.00
2019-04-10T05:44:38.182Z,1.00
2019-04-10T05:47:07.453Z,1.10
2019-04-10T05:49:37.278Z,1.20
2019-04-10T05:52:06.832Z,1.20
2019-04-10T05:54:35.999Z,1.30
2019-04-10T05:57:06.127Z,1.30
2019-04-10T05:59:36.244Z,1.40
2019-04-10T06:02:06.809Z,1.50
2019-04-10T06:04:37.706Z,1.50
2019-04-10T06:07:08.519Z,1.80
2019-04-10T06:09:38.602Z,2.00
2019-04-10T06:12:08.007Z,2.20
2019-04-10T06:14:38.024Z,2.40
2019-04-10T06:17:08.035Z,2.40
2019-04-10T06:19:37.435Z,2.40
2019-04-10T06:22:09.500Z,2.60
2019-04-10T06:24:38.489Z,2.60
2019-04-10T06:27:08.215Z,2.70
2019-04-10T06:29:37.746Z,2.70
2019-04-10T06:32:07.384Z,2.70
2019-04-10T06:34:39.217Z,2.70
2019-04-10T06:37:08.667Z,2.80
2019-04-10T06:39:38.071Z,2.90
2019-04-10T06:42:07.276Z,3.00
2019-04-10T06:44:38.322Z,3.00
2019-04-10T06:47:07.624Z,3.10
2019-04-10T06:49:36.905Z,3.10
2019-04-10T06:52:06.199Z,3.10
2019-04-10T06:54:38.550Z,3.10
2019-04-10T06:57:08.283Z,3.20
2019-04-10T06:59:40.417Z,3.30
2019-04-10T07:02:20.283Z,3.30
2019-04-10T07:04:46.052Z,3.30
2019-04-10T07:07:13.977Z,3.30
2019-04-10T07:09:42.218Z,3.40
2019-04-10T07:12:12.166Z,3.40
2019-04-10T07:14:46.273Z,3.50
2019-04-10T07:17:14.228Z,3.50
2019-04-10T07:19:45.516Z,3.50
2019-04-10T07:22:16.213Z,3.30
2019-04-10T07:24:46.140Z,3.30
2019-04-10T07:27:16.064Z,3.60
2019-04-10T07:29:46.431Z,3.60
2019-04-10T07:32:18.393Z,3.60
2019-04-10T07:34:48.733Z,3.60
2019-04-10T07:37:22.147Z,3.70
2019-04-10T07:39:48.978Z,4.10
2019-04-10T07:42:26.706Z,4.40
2019-04-10T07:44:51.273Z,4.30
2019-04-10T07:47:21.180Z,4.00
2019-04-10T07:49:52.440Z,4.30
2019-04-10T07:52:23.040Z,4.50
2019-04-10T07:54:52.738Z,4.30
2019-04-10T07:57:22.491Z,4.10
2019-04-10T07:59:52.646Z,4.10
2019-04-10T08:02:21.862Z,4.10
2019-04-10T08:04:51.654Z,3.90
2019-04-10T08:07:29.830Z,4.10
2019-04-10T08:09:52.555Z,4.20
2019-04-10T08:12:21.728Z,4.00
2019-04-10T08:14:51.865Z,4.10
2019-04-10T08:17:21.808Z,4.20
2019-04-10T08:19:53.037Z,4.20
2019-04-10T08:22:22.381Z,4.40
2019-04-10T08:24:51.566Z,4.20
2019-04-10T08:27:21.369Z,4.10
2019-04-10T08:29:50.701Z,3.90
2019-04-10T08:32:19.863Z,3.70
2019-04-10T08:34:50.234Z,3.90
2019-04-10T08:37:20.722Z,4.10
2019-04-10T08:39:51.393Z,4.20
2019-04-10T08:42:22.359Z,4.50
2019-04-10T08:44:52.123Z,4.70
2019-04-10T08:47:23.051Z,4.60
2019-04-10T08:49:52.850Z,4.80
2019-04-10T08:52:22.215Z,4.40
2019-04-10T08:54:51.482Z,4.30
2019-04-10T08:57:23.917Z,4.40
2019-04-10T08:59:54.144Z,4.40
2019-04-10T09:02:24.134Z,4.90
2019-04-10T09:04:53.547Z,5.00
2019-04-10T09:07:22.871Z,5.20
2019-04-10T09:09:52.206Z,5.20
2019-04-10T09:12:21.977Z,5.00
2019-04-10T09:14:51.778Z,4.90
2019-04-10T09:17:21.162Z,5.00
2019-04-10T09:19:50.536Z,5.50
2019-04-10T09:22:20.475Z,5.90
2019-04-10T09:24:50.883Z,6.20
2019-04-10T09:27:21.219Z,6.00
2019-04-10T09:29:50.466Z,5.40
2019-04-10T09:32:20.129Z,5.30
2019-04-10T09:34:49.875Z,4.90
2019-04-10T09:37:19.116Z,4.90
2019-04-10T09:39:50.944Z,4.60
2019-04-10T09:42:19.419Z,4.40
2019-04-10T09:44:48.592Z,4.50
2019-04-10T09:47:18.411Z,4.50
2019-04-10T09:49:47.727Z,4.70
2019-04-10T09:52:16.978Z,4.90
2019-04-10T09:54:46.752Z,5.00
2019-04-10T09:57:15.991Z,5.10
2019-04-10T09:59:46.205Z,5.00
2019-04-10T10:02:16.211Z,5.20
2019-04-10T10:04:46.016Z,5.20
2019-04-10T10:07:16.398Z,5.30
2019-04-10T10:09:45.538Z,5.50
2019-04-10T10:12:15.760Z,5.40
2019-04-10T10:14:46.255Z,5.60
2019-04-10T10:17:15.448Z,6.00
2019-04-10T10:19:45.955Z,6.20
2019-04-10T10:22:15.371Z,6.00
2019-04-10T10:24:48.858Z,5.70
2019-04-10T10:27:18.116Z,5.80
2019-04-10T10:29:48.087Z,5.70
2019-04-10T10:32:17.547Z,5.60
2019-04-10T10:34:47.022Z,5.60
2019-04-10T10:37:16.620Z,5.30
2019-04-10T10:39:47.037Z,5.20
2019-04-10T10:42:19.210Z,5.30
2019-04-10T10:44:50.202Z,5.30
2019-04-10T10:47:20.120Z,5.30
2019-04-10T10:49:49.403Z,5.70
2019-04-10T10:52:19.412Z,5.70
2019-04-10T10:54:49.374Z,5.60
2019-04-10T10:57:19.360Z,5.50
2019-04-10T10:59:49.421Z,5.30
2019-04-10T11:02:19.194Z,5.10
2019-04-10T11:04:48.500Z,5.10
2019-04-10T11:07:18.718Z,5.00
2019-04-10T11:09:48.518Z,4.80
2019-04-10T11:12:17.811Z,4.80
2019-04-10T11:14:48.184Z,4.80
2019-04-10T11:17:17.601Z,4.90
2019-04-10T11:19:47.362Z,4.80
2019-04-10T11:22:22.489Z,5.00
2019-04-10T11:24:49.417Z,5.20
2019-04-10T11:27:18.987Z,5.30
2019-04-10T11:29:48.270Z,5.40
2019-04-10T11:32:17.685Z,5.50
2019-04-10T11:34:49.217Z,5.60
2019-04-10T11:37:27.065Z,5.70
2019-04-10T11:39:51.556Z,5.70
2019-04-10T11:42:21.510Z,5.80
2019-04-10T11:44:54.460Z,5.90
2019-04-10T11:47:24.746Z,5.50
2019-04-10T11:49:57.128Z,5.30
2019-04-10T11:52:33.738Z,5.30
2019-04-10T11:55:05.123Z,5.30
2019-04-10T11:57:30.137Z,5.30
2019-04-10T12:00:02.274Z,5.30
2019-04-10T12:02:32.345Z,5.30
2019-04-10T12:05:07.425Z,5.30
2019-04-10T12:08:20.950Z,5.20
2019-04-10T12:12:33.399Z,5.50
2019-04-10T12:15:03.897Z,5.80
2019-04-10T12:17:34.463Z,6.10
2019-04-10T12:20:04.828Z,6.00
2019-04-10T12:22:34.318Z,5.80
2019-04-10T12:25:04.740Z,5.90
2019-04-10T12:27:35.156Z,6.00
2019-04-10T12:30:04.877Z,5.80
2019-04-10T12:32:34.148Z,5.50
2019-04-10T12:35:04.606Z,5.90
2019-04-10T12:37:37.126Z,5.90
2019-04-10T12:40:07.584Z,6.00
2019-04-10T12:42:36.907Z,6.20
2019-04-10T12:45:08.363Z,6.40
2019-04-10T12:47:37.796Z,6.20
2019-04-10T12:50:08.068Z,5.90
2019-04-10T12:52:37.480Z,6.00
2019-04-10T12:55:08.137Z,6.10
2019-04-10T12:57:37.731Z,6.30
2019-04-10T13:00:09.701Z,6.40
2019-04-10T13:02:38.955Z,6.30
2019-04-10T13:05:09.299Z,6.40
2019-04-10T13:07:38.611Z,6.40
2019-04-10T13:10:08.721Z,6.30
2019-04-10T13:12:37.986Z,6.50
2019-04-10T13:15:07.556Z,6.70
2019-04-10T13:17:36.743Z,6.80
2019-04-10T13:20:07.563Z,6.90
2019-04-10T13:22:36.768Z,6.70
2019-04-10T13:25:08.187Z,7.00
2019-04-10T13:27:37.454Z,6.80
2019-04-10T13:30:11.013Z,6.50
2019-04-10T13:32:38.844Z,6.60
2019-04-10T13:35:08.170Z,6.70
2019-04-10T13:37:37.892Z,6.60
2019-04-10T13:40:07.727Z,6.50
2019-04-10T13:42:37.277Z,6.40
2019-04-10T13:45:07.396Z,6.60
2019-04-10T13:47:36.626Z,6.70
2019-04-10T13:50:06.359Z,6.50
2019-04-10T13:52:37.110Z,6.30
2019-04-10T13:55:07.416Z,6.40
2019-04-10T13:57:37.330Z,6.30
2019-04-10T14:00:09.267Z,6.30
2019-04-10T14:02:39.513Z,6.30
2019-04-10T14:05:11.700Z,6.30
2019-04-10T14:07:42.206Z,6.30
2019-04-10T14:10:14.649Z,6.40
2019-04-10T14:12:43.945Z,6.50
2019-04-10T14:15:14.004Z,6.60
2019-04-10T14:17:43.898Z,6.50
2019-04-10T14:20:15.215Z,6.50
2019-04-10T14:22:55.705Z,6.20
2019-04-10T14:25:35.987Z,6.20
2019-04-10T14:28:05.177Z,5.90
2019-04-10T14:30:37.675Z,6.00
2019-04-10T14:33:07.264Z,5.90
2019-04-10T14:35:36.411Z,6.00
2019-04-10T14:38:06.539Z,6.20
2019-04-10T14:40:36.126Z,6.20
2019-04-10T14:43:05.616Z,6.10
2019-04-10T14:45:35.430Z,6.20
2019-04-10T14:48:05.762Z,6.00
2019-04-10T14:50:35.070Z,6.00
2019-04-10T14:53:05.473Z,6.00
2019-04-10T14:55:35.534Z,6.00
2019-04-10T14:58:05.543Z,5.90
2019-04-10T15:00:49.379Z,6.00
2019-04-10T15:03:20.191Z,5.90
2019-04-10T15:05:51.495Z,5.90
2019-04-10T15:08:20.385Z,6.10
2019-04-10T15:10:49.619Z,5.90
2019-04-10T15:13:21.224Z,5.90
2019-04-10T15:15:50.417Z,5.90
2019-04-10T15:18:20.458Z,5.90
2019-04-10T15:20:49.687Z,6.00
2019-04-10T15:23:18.996Z,6.00
2019-04-10T15:25:49.285Z,5.90
2019-04-10T15:28:19.968Z,5.70
2019-04-10T15:30:49.240Z,5.70
2019-04-10T15:33:18.684Z,5.60
2019-04-10T15:35:47.967Z,5.60
2019-04-10T15:38:17.883Z,5.70
2019-04-10T15:40:47.189Z,5.70
2019-04-10T15:43:16.772Z,5.80
2019-04-10T15:45:46.339Z,5.80
2019-04-10T15:48:18.861Z,5.70
2019-04-10T15:50:48.135Z,5.70
2019-04-10T15:53:18.092Z,5.70
2019-04-10T15:55:47.650Z,5.80
2019-04-10T15:58:17.286Z,5.70
2019-04-10T16:00:47.632Z,5.50
2019-04-10T16:03:17.535Z,5.60
2019-04-10T16:05:47.969Z,5.50
2019-04-10T16:08:18.992Z,5.40
2019-04-10T16:11:05.833Z,5.40
2019-04-10T16:13:44.438Z,5.40
2019-04-10T16:16:37.646Z,5.40
2019-04-10T16:19:30.717Z,5.40
2019-04-10T16:22:01.115Z,5.30
2019-04-10T16:24:31.137Z,5.10
2019-04-10T16:27:00.479Z,5.10
2019-04-10T16:29:32.275Z,5.00
2019-04-10T16:32:08.418Z,4.80
2019-04-10T16:34:38.644Z,4.80
2019-04-10T16:37:31.528Z,4.80
2019-04-10T16:40:10.070Z,4.70
2019-04-10T16:42:41.650Z,4.50
2019-04-10T16:45:11.067Z,4.50
2019-04-10T16:47:40.251Z,4.40
2019-04-10T16:50:09.643Z,4.30
2019-04-10T16:52:39.003Z,4.20
2019-04-10T16:55:10.374Z,4.20
2019-04-10T16:57:45.329Z,4.20
2019-04-10T17:00:16.717Z,4.30
2019-04-10T17:02:46.502Z,4.30
2019-04-10T17:05:16.495Z,4.30
2019-04-10T17:07:51.619Z,4.20
2019-04-10T17:10:29.223Z,4.20
2019-04-10T17:13:04.726Z,4.20
2019-04-10T17:15:34.367Z,4.10
2019-04-10T17:18:03.976Z,4.10
2019-04-10T17:20:33.301Z,4.10
2019-04-10T17:23:06.202Z,4.00
2019-04-10T17:25:35.974Z,4.00
2019-04-10T17:28:05.261Z,4.00
2019-04-10T17:30:35.858Z,4.00
2019-04-10T17:33:05.395Z,4.00
2019-04-10T17:35:35.920Z,3.90
2019-04-10T17:38:06.606Z,3.90
2019-04-10T17:40:45.891Z,3.80
2019-04-10T17:43:10.537Z,3.80
2019-04-10T17:45:48.936Z,3.70
2019-04-10T17:48:19.889Z,3.60
2019-04-10T17:50:49.799Z,3.50
2019-04-10T17:53:19.284Z,3.60
2019-04-10T17:55:49.667Z,3.50
2019-04-10T17:58:21.182Z,3.50
2019-04-10T18:00:55.621Z,3.50
2019-04-10T18:03:33.635Z,3.50
2019-04-10T18:05:57.209Z,3.50
2019-04-10T18:08:28.281Z,3.50
2019-04-10T18:10:58.677Z,3.50
2019-04-10T18:13:28.742Z,3.50
2019-04-10T18:15:58.265Z,3.50
2019-04-10T18:18:29.533Z,3.50
2019-04-10T18:21:00.088Z,3.40
2019-04-10T18:23:29.421Z,3.50
2019-04-10T18:26:01.022Z,3.40
2019-04-10T18:28:32.236Z,3.30
2019-04-10T18:31:02.707Z,3.30
2019-04-10T18:33:32.386Z,3.30
2019-04-10T18:36:02.879Z,3.20
2019-04-10T18:38:33.318Z,3.20
2019-04-10T18:41:05.756Z,3.30
2019-04-10T18:43:34.392Z,3.20
2019-04-10T18:46:13.468Z,3.20
2019-04-10T18:49:09.383Z,3.10
2019-04-10T19:13:33.151Z,2.80
2019-04-10T19:16:03.469Z,2.80
2019-04-10T19:18:37.528Z,2.80
2019-04-10T19:21:46.118Z,2.80
2019-04-10T19:24:28.292Z,2.80
2019-04-10T19:27:04.137Z,2.80
2019-04-10T19:29:36.554Z,2.70
2019-04-10T19:35:15.037Z,2.70
2019-04-10T19:38:03.106Z,2.70
2019-04-10T19:40:40.367Z,2.60
2019-04-10T19:43:35.685Z,2.60
2019-04-10T19:46:21.629Z,2.50
2019-04-10T19:49:19.823Z,2.50
2019-04-10T19:52:09.461Z,2.40
2019-04-10T19:55:11.683Z,2.30
2019-04-10T19:57:47.748Z,2.20
2019-04-10T20:00:20.013Z,2.20
2019-04-10T20:02:50.998Z,2.10
2019-04-10T20:05:23.571Z,2.00
2019-04-10T20:08:22.147Z,2.00
2019-04-10T20:11:03.429Z,1.90
2019-04-10T20:13:40.944Z,1.70
2019-04-10T20:16:11.137Z,1.60
2019-04-10T20:18:46.855Z,1.50
2019-04-10T20:21:17.627Z,1.50
2019-04-10T20:23:54.486Z,1.50
2019-04-10T20:26:27.294Z,1.40
2019-04-10T20:28:59.139Z,1.30
2019-04-10T20:31:31.536Z,1.20
2019-04-10T20:34:03.316Z,1.10
2019-04-10T20:36:33.533Z,1.00
2019-04-10T20:39:05.953Z,0.80
2019-04-10T20:41:49.677Z,0.70
2019-04-10T21:18:19.511Z,-0.50
2019-04-10T21:24:09.819Z,-0.60
2019-04-10T21:27:15.118Z,-0.60
2019-04-10T21:30:09.332Z,-0.70
2019-04-10T21:33:07.862Z,-0.80
2019-04-10T21:35:57.749Z,-0.80
2019-04-10T21:38:30.376Z,-0.80
2019-04-10T21:41:06.412Z,-0.90
2019-04-10T21:44:00.340Z,-0.80
2019-04-10T21:46:36.762Z,-0.90
2019-04-10T21:49:11.320Z,-0.90
2019-04-10T21:51:53.721Z,-0.90
2019-04-10T21:54:25.052Z,-0.80
2019-04-10T21:56:59.837Z,-0.80
2019-04-10T21:59:36.704Z,-0.70
2019-04-10T22:02:33.975Z,-0.60
2019-04-10T22:05:46.557Z,-0.60
2019-04-10T22:31:07.820Z,-0.30
2019-04-10T22:33:47.148Z,-0.40
2019-04-10T22:36:20.625Z,-0.50
2019-04-10T22:38:51.851Z,-0.60
2019-04-10T22:44:43.842Z,-0.70
2019-04-10T22:47:17.210Z,-0.70
2019-04-10T22:49:53.582Z,-0.80
2019-04-10T22:52:24.578Z,-0.80
2019-04-10T22:54:59.357Z,-0.90
2019-04-10T22:57:31.457Z,-1.00
2019-04-10T23:00:22.302Z,-1.00
2019-04-10T23:02:57.295Z,-1.10
2019-04-10T23:05:30.146Z,-1.10
2019-04-10T23:08:05.485Z,-1.20
2019-04-10T23:10:57.314Z,-1.20
2019-04-10T23:13:36.242Z,-1.20
2019-04-10T23:16:09.066Z,-1.20
2019-04-10T23:18:45.608Z,-1.30
2019-04-10T23:21:18.628Z,-1.40
2019-04-10T23:24:03.305Z,-1.40
2019-04-10T23:26:38.086Z,-1.50
2019-04-10T23:29:13.949Z,-1.50
2019-04-10T23:31:56.242Z,-1.50
2019-04-10T23:34:43.003Z,-1.60
2019-04-10T23:37:20.527Z,-1.60
2019-04-10T23:40:32.918Z,-1.60
2019-04-10T23:46:52.418Z,-1.70
2019-04-10T23:49:59.609Z,-1.70
2019-04-10T23:52:29.758Z,-1.70
2019-04-10T23:59:04.525Z,-1.80
